Time;durP1;ratioP1;P1;durP2;ratioP2;P2;SDS_P1;SDS_P2;PMS_P1;PMS_P2;Temp;Humidity;BMP_temperature;BMP_pressure;BME280_temperature;BME280_humidity;BME280_pressure;Samples;Min_cycle;Max_cycle;Signal;HPM_P1;HPM_P2
2022/10/29 05:54:06;;;;;;;23.83;5.30;;;17.40;82.90;;;;;;5590630;23;20069;-69
2022/10/29 05:56:32;;;;;;;13.85;5.43;;;17.40;81.90;;;;;;4846478;29;20054;-69
2022/10/29 05:58:58;;;;;;;7.38;4.88;;;17.30;81.20;;;;;;4846852;29;20135;-70
2022/10/29 06:01:24;;;;;;;8.20;5.70;;;17.30;81.00;;;;;;4850312;29;20128;-71
2022/10/29 06:03:49;;;;;;;8.05;5.50;;;17.20;80.80;;;;;;4864299;29;20060;-73
2022/10/29 06:06:15;;;;;;;7.18;5.45;;;17.20;80.70;;;;;;4864774;29;20060;-72
2022/10/29 06:08:41;;;;;;;7.32;5.57;;;17.10;80.40;;;;;;4864253;29;20470;-72
2022/10/29 06:11:06;;;;;;;7.85;4.93;;;17.20;80.40;;;;;;4864665;29;20050;-72
2022/10/29 06:13:32;;;;;;;7.22;4.18;;;17.20;80.30;;;;;;4848528;29;20461;-74
2022/10/29 06:15:59;;;;;;;7.93;4.20;;;17.20;80.20;;;;;;4864884;29;20049;-71
2022/10/29 06:18:26;;;;;;;7.45;4.32;;;17.20;80.30;;;;;;4864597;29;20482;-73
2022/10/29 06:20:52;;;;;;;8.13;4.25;;;17.10;80.40;;;;;;4864724;29;20053;-73
2022/10/29 06:23:18;;;;;;;6.47;4.05;;;17.20;80.70;;;;;;4864762;29;20124;-73
2022/10/29 06:25:43;;;;;;;9.20;3.38;;;17.20;80.70;;;;;;4864402;29;20133;-73
2022/10/29 06:28:13;;;;;;;9.73;3.92;;;17.20;80.80;;;;;;4864793;29;20049;-73
2022/10/29 06:30:44;;;;;;;6.82;3.53;;;17.20;80.70;;;;;;4864298;29;20061;-72
2022/10/29 06:33:10;;;;;;;6.00;3.70;;;17.20;80.70;;;;;;4863885;29;20045;-75
2022/10/29 06:35:36;;;;;;;18.17;4.53;;;17.30;80.80;;;;;;4864139;29;20129;-73
2022/10/29 06:38:02;;;;;;;14.30;4.25;;;17.30;80.90;;;;;;4863768;29;20045;-73
2022/10/29 06:40:28;;;;;;;17.38;4.50;;;17.30;80.80;;;;;;4847642;29;20042;-72
2022/10/29 06:43:08;;;;;;;12.13;4.47;;;17.30;80.70;;;;;;4863874;29;20053;-72
2022/10/29 06:45:34;;;;;;;13.05;4.95;;;17.30;80.40;;;;;;4864804;29;20071;-72
2022/10/29 06:48:00;;;;;;;9.77;4.50;;;17.30;80.10;;;;;;4864325;29;20412;-74
2022/10/29 06:50:26;;;;;;;6.82;4.97;;;17.30;79.80;;;;;;4868837;29;20590;-74
2022/10/29 06:52:57;;;;;;;8.32;4.20;;;17.30;79.50;;;;;;4882213;29;20041;-76
2022/10/29 06:55:22;;;;;;;7.38;4.75;;;17.30;79.20;;;;;;4881939;29;20382;-74
2022/10/29 06:58:01;;;;;;;8.40;4.60;;;17.30;79.00;;;;;;4882527;29;20049;-74
2022/10/29 07:00:28;;;;;;;7.85;4.63;;;17.30;78.90;;;;;;4882208;29;20053;-78
2022/10/29 07:02:55;;;;;;;9.88;4.57;;;17.20;78.80;;;;;;4882277;29;20049;-76
2022/10/29 07:05:21;;;;;;;11.02;5.38;;;17.20;78.70;;;;;;4881993;29;20057;-74
2022/10/29 07:07:47;;;;;;;13.23;5.40;;;17.20;78.70;;;;;;4882191;29;20166;-78
2022/10/29 07:10:13;;;;;;;9.88;5.18;;;17.20;78.70;;;;;;4882255;29;20506;-73
2022/10/29 07:12:42;;;;;;;10.55;5.88;;;17.20;79.10;;;;;;4882104;29;20056;-74
2022/10/29 07:15:09;;;;;;;12.25;5.68;;;17.20;79.00;;;;;;4882230;29;20500;-75
2022/10/29 07:17:36;;;;;;;9.93;5.47;;;17.20;79.10;;;;;;4882794;29;20053;-75
2022/10/29 07:20:04;;;;;;;8.90;4.35;;;17.20;79.10;;;;;;4881953;29;20059;-74
2022/10/29 07:22:30;;;;;;;9.10;4.55;;;17.20;79.10;;;;;;4882286;29;20112;-75
2022/10/29 07:24:55;;;;;;;9.00;4.85;;;17.20;79.10;;;;;;4869025;29;20454;-76
2022/10/29 07:27:21;;;;;;;8.38;4.10;;;17.20;79.10;;;;;;4863575;29;20058;-77
2022/10/29 07:29:47;;;;;;;11.60;4.35;;;17.20;79.20;;;;;;4847189;29;20363;-77
2022/10/29 07:32:12;;;;;;;9.00;3.72;;;17.20;79.30;;;;;;4863238;29;20058;-75
2022/10/29 07:34:38;;;;;;;13.52;4.50;;;17.20;79.50;;;;;;4863158;29;20399;-76
2022/10/29 07:37:04;;;;;;;10.15;3.97;;;17.20;79.60;;;;;;4863767;29;20094;-76
2022/10/29 07:39:29;;;;;;;8.20;3.60;;;17.30;79.90;;;;;;4873086;29;20136;-75
2022/10/29 07:41:55;;;;;;;6.78;2.85;;;17.30;79.90;;;;;;4881504;29;20128;-75
2022/10/29 07:44:21;;;;;;;16.20;4.68;;;17.30;80.00;;;;;;4882038;29;20470;-78
2022/10/29 07:46:46;;;;;;;12.38;4.70;;;17.30;80.00;;;;;;4881962;29;20127;-74
2022/10/29 07:49:12;;;;;;;9.43;4.18;;;17.20;80.10;;;;;;4881792;29;20048;-76
2022/10/29 07:51:38;;;;;;;19.73;5.68;;;17.20;80.30;;;;;;4881501;29;20132;-73
2022/10/29 07:54:03;;;;;;;16.67;5.00;;;17.20;80.50;;;;;;4881305;29;20053;-75
2022/10/29 07:56:29;;;;;;;14.25;4.70;;;17.10;80.70;;;;;;4881564;29;20052;-76
2022/10/29 07:58:55;;;;;;;10.32;4.38;;;17.10;80.90;;;;;;4881906;29;20056;-79
2022/10/29 08:01:21;;;;;;;18.75;4.30;;;17.10;81.10;;;;;;4881415;29;20494;-75
2022/10/29 08:03:49;;;;;;;18.55;4.35;;;17.20;81.30;;;;;;4881863;29;20060;-80
2022/10/29 08:06:15;;;;;;;11.80;4.05;;;17.20;81.30;;;;;;4849686;29;20138;-76
2022/10/29 08:08:40;;;;;;;17.23;6.75;;;17.20;81.40;;;;;;4881088;29;20185;-76
2022/10/29 08:11:06;;;;;;;15.73;7.47;;;17.20;81.30;;;;;;4881344;29;20044;-78
2022/10/29 08:13:32;;;;;;;16.13;8.07;;;17.20;80.90;;;;;;4881102;29;20375;-77
2022/10/29 08:15:58;;;;;;;16.38;8.88;;;17.20;80.80;;;;;;4881155;29;20060;-75
2022/10/29 08:18:24;;;;;;;17.30;8.60;;;17.20;80.60;;;;;;4881240;29;20053;-75
2022/10/29 08:20:49;;;;;;;17.00;8.82;;;17.20;80.50;;;;;;4881047;29;20049;-75
2022/10/29 08:23:15;;;;;;;17.10;9.50;;;17.20;80.40;;;;;;4881125;29;20052;-75
2022/10/29 08:25:41;;;;;;;21.30;8.77;;;17.10;80.50;;;;;;4880417;29;20422;-74
2022/10/29 08:28:12;;;;;;;23.92;8.77;;;17.00;80.80;;;;;;4881190;29;20127;-75
2022/10/29 08:30:38;;;;;;;33.83;10.30;;;17.00;81.10;;;;;;4881349;29;20057;-74
2022/10/29 08:33:04;;;;;;;27.38;9.52;;;17.00;81.30;;;;;;4870186;29;20423;-75
2022/10/29 08:35:30;;;;;;;26.75;9.27;;;17.10;81.60;;;;;;4859678;29;20050;-79
2022/10/29 08:37:56;;;;;;;31.25;9.77;;;17.10;81.60;;;;;;4846199;29;20088;-79
2022/10/29 08:40:46;;;;;;;20.75;8.38;;;17.10;81.60;;;;;;4862479;29;20073;-78
2022/10/29 08:43:34;;;;;;;19.67;7.85;;;17.20;81.60;;;;;;4845648;29;20056;-78
2022/10/29 08:46:00;;;;;;;19.38;7.70;;;17.20;81.50;;;;;;4846277;29;20471;-79
2022/10/29 08:48:53;;;;;;;25.38;7.97;;;17.20;81.40;;;;;;4862223;29;20057;-78
2022/10/29 08:51:38;;;;;;;19.58;8.18;;;17.20;81.30;;;;;;4846148;29;20129;-78
2022/10/29 08:54:04;;;;;;;21.45;8.43;;;17.20;81.30;;;;;;4861902;29;20132;-78
2022/10/29 08:56:35;;;;;;;20.67;7.88;;;17.20;81.30;;;;;;4846402;29;20375;-80
2022/10/29 08:59:16;;;;;;;18.67;7.45;;;17.30;81.20;;;;;;4830889;29;20050;-79
2022/10/29 09:01:43;;;;;;;18.30;7.05;;;17.20;81.10;;;;;;4862627;29;20085;-78
2022/10/29 09:04:34;;;;;;;17.70;7.70;;;17.30;81.20;;;;;;4830422;29;20471;-79
2022/10/29 09:07:08;;;;;;;19.27;7.50;;;17.30;81.10;;;;;;4846311;29;20057;-79
2022/10/29 09:09:46;;;;;;;17.45;7.20;;;17.30;81.10;;;;;;4845959;29;20084;-78
2022/10/29 09:12:25;;;;;;;16.65;6.68;;;17.30;81.00;;;;;;4862003;29;20105;-77
2022/10/29 09:15:29;;;;;;;18.88;8.75;;;17.30;80.90;;;;;;4845950;29;20053;-76
2022/10/29 09:18:16;;;;;;;16.60;7.00;;;17.30;80.90;;;;;;4861114;29;20379;-77
2022/10/29 09:21:03;;;;;;;17.30;7.50;;;17.30;81.10;;;;;;4862330;29;20064;-75
2022/10/29 09:23:59;;;;;;;15.15;7.18;;;17.30;81.10;;;;;;4862910;29;20088;-77
2022/10/29 09:26:49;;;;;;;14.52;7.22;;;17.30;81.10;;;;;;4865777;29;20068;-74
2022/10/29 09:29:45;;;;;;;16.00;7.20;;;17.30;81.00;;;;;;4865044;29;20463;-76
2022/10/29 09:32:32;;;;;;;19.35;6.63;;;17.30;81.10;;;;;;4849052;29;20143;-75
2022/10/29 09:35:06;;;;;;;13.50;7.25;;;17.30;81.10;;;;;;4864991;29;20128;-77
2022/10/29 09:37:58;;;;;;;16.95;6.82;;;17.30;81.00;;;;;;4865144;29;20068;-76
2022/10/29 09:40:39;;;;;;;10.40;5.47;;;17.30;80.90;;;;;;4864968;29;20053;-75
2022/10/29 09:43:42;;;;;;;13.57;6.93;;;17.30;81.00;;;;;;4848917;29;20046;-75
2022/10/29 09:46:17;;;;;;;10.38;6.05;;;17.30;80.90;;;;;;4865024;29;20121;-75
2022/10/29 09:49:10;;;;;;;11.57;6.28;;;17.30;81.00;;;;;;4865149;29;20378;-75
2022/10/29 09:52:04;;;;;;;14.25;6.60;;;17.30;81.00;;;;;;4848971;29;20558;-75
2022/10/29 09:54:31;;;;;;;13.95;5.78;;;17.30;80.90;;;;;;4864927;29;20245;-75
2022/10/29 09:56:59;;;;;;;11.10;5.80;;;17.30;80.90;;;;;;4848637;29;20060;-76
2022/10/29 09:59:33;;;;;;;9.10;5.70;;;17.30;80.90;;;;;;4848983;29;20049;-74
2022/10/29 10:01:59;;;;;;;10.38;5.88;;;17.30;80.90;;;;;;4864713;29;20382;-76
2022/10/29 10:04:38;;;;;;;7.82;4.53;;;17.30;80.90;;;;;;4848631;29;20049;-74
2022/10/29 10:07:07;;;;;;;14.35;8.88;;;17.30;80.80;;;;;;4865108;29;20062;-74
2022/10/29 10:09:53;;;;;;;19.52;10.35;;;17.30;80.90;;;;;;4864535;29;20045;-78
2022/10/29 10:12:22;;;;;;;21.02;11.82;;;17.30;81.30;;;;;;4848467;29;20113;-74
2022/10/29 10:15:00;;;;;;;18.63;11.98;;;17.30;81.50;;;;;;4848666;29;20064;-74
2022/10/29 10:17:25;;;;;;;23.95;13.70;;;17.30;81.70;;;;;;4864526;29;20045;-72
2022/10/29 10:19:51;;;;;;;17.25;11.30;;;17.30;82.10;;;;;;4864616;29;20060;-74
2022/10/29 10:22:20;;;;;;;18.40;10.98;;;17.20;82.30;;;;;;4864509;29;20050;-73
2022/10/29 10:24:47;;;;;;;17.98;11.75;;;17.20;82.50;;;;;;4864725;29;20128;-75
2022/10/29 10:27:18;;;;;;;23.17;11.85;;;17.20;82.60;;;;;;4864624;29;20045;-74
2022/10/29 10:30:11;;;;;;;19.88;12.40;;;17.20;82.70;;;;;;4864310;29;20458;-76
2022/10/29 10:32:36;;;;;;;19.10;11.48;;;17.20;82.90;;;;;;4855042;29;20057;-77
2022/10/29 10:35:20;;;;;;;21.10;11.63;;;17.20;83.00;;;;;;4863971;29;20144;-74
2022/10/29 10:37:46;;;;;;;18.75;12.18;;;17.20;83.20;;;;;;4862714;29;20057;-75
2022/10/29 10:40:23;;;;;;;18.63;11.18;;;17.20;83.40;;;;;;4862899;29;20048;-77
2022/10/29 10:42:54;;;;;;;20.60;11.43;;;17.10;83.30;;;;;;4846587;29;20085;-77
2022/10/29 10:45:31;;;;;;;18.17;11.10;;;17.20;83.30;;;;;;4863953;29;20056;-77
2022/10/29 10:47:57;;;;;;;16.58;10.13;;;17.20;83.20;;;;;;4832438;29;20061;-76
2022/10/29 10:50:23;;;;;;;21.05;10.85;;;17.20;83.10;;;;;;4863599;29;20049;-80
2022/10/29 10:52:50;;;;;;;17.45;10.70;;;17.20;83.00;;;;;;4863777;29;20117;-81
2022/10/29 10:55:27;;;;;;;20.52;9.60;;;17.30;83.00;;;;;;4847417;29;20057;-80
2022/10/29 10:58:30;;;;;;;17.08;8.95;;;17.30;82.90;;;;;;4863477;29;20140;-81
2022/10/29 11:01:08;;;;;;;12.93;8.65;;;17.30;82.80;;;;;;4833004;29;20051;-80
2022/10/29 11:03:42;;;;;;;13.27;8.23;;;17.30;82.80;;;;;;4832105;29;20046;-81
2022/10/29 11:06:14;;;;;;;17.50;8.43;;;17.30;82.70;;;;;;4832736;29;20079;-80
2022/10/29 11:08:57;;;;;;;12.35;7.68;;;17.30;82.60;;;;;;4847510;29;20129;-80
2022/10/29 11:11:54;;;;;;;12.60;7.70;;;17.40;82.60;;;;;;4832607;29;20049;-84
2022/10/29 11:15:09;;;;;;;14.27;8.15;;;17.40;82.50;;;;;;4847338;29;20059;-80
2022/10/29 11:17:44;;;;;;;13.13;7.45;;;17.40;83.00;;;;;;4842891;29;20053;-81
2022/10/29 11:20:26;;;;;;;10.43;6.63;;;17.40;82.40;;;;;;4832793;29;20053;-80
2022/10/29 11:23:23;;;;;;;11.02;6.75;;;17.40;82.40;;;;;;4847212;29;20049;-82
2022/10/29 11:26:13;;;;;;;10.93;7.07;;;17.40;82.30;;;;;;4847139;29;20057;-83
2022/10/29 11:29:01;;;;;;;9.63;5.90;;;17.40;82.30;;;;;;4863136;29;20458;-78
2022/10/29 11:31:54;;;;;;;24.33;7.38;;;17.40;82.30;;;;;;4847158;29;20053;-76
2022/10/29 11:34:29;;;;;;;15.15;6.85;;;17.40;82.20;;;;;;4863216;29;20399;-76
2022/10/29 11:37:02;;;;;;;14.32;7.28;;;17.40;82.20;;;;;;4863230;29;20038;-76
2022/10/29 11:39:37;;;;;;;12.45;5.25;;;17.50;82.20;;;;;;4863274;29;20053;-75
2022/10/29 11:42:04;;;;;;;12.95;6.40;;;17.40;82.10;;;;;;4863368;29;20053;-76
2022/10/29 11:44:37;;;;;;;9.40;5.80;;;17.50;82.20;;;;;;4863320;29;20108;-77
2022/10/29 11:47:18;;;;;;;10.88;5.95;;;17.50;82.10;;;;;;4846032;29;20057;-76
2022/10/29 11:50:00;;;;;;;10.68;6.32;;;17.50;82.10;;;;;;4863018;29;20069;-74
2022/10/29 11:52:51;;;;;;;9.60;5.40;;;17.50;82.10;;;;;;4860051;29;20077;-76
2022/10/29 11:55:25;;;;;;;11.93;5.43;;;17.50;82.00;;;;;;4873186;29;20053;-77
2022/10/29 11:58:18;;;;;;;11.60;5.72;;;17.50;82.00;;;;;;4846447;29;20367;-77
2022/10/29 12:00:53;;;;;;;13.18;5.32;;;17.50;82.10;;;;;;4862855;29;20558;-75
2022/10/29 12:03:28;;;;;;;10.95;5.10;;;17.50;82.20;;;;;;4862836;29;20379;-75
2022/10/29 12:06:00;;;;;;;9.88;5.25;;;17.50;82.10;;;;;;4862899;29;20053;-77
2022/10/29 12:08:36;;;;;;;11.05;4.63;;;17.50;82.40;;;;;;4845770;29;20141;-76
2022/10/29 12:11:40;;;;;;;10.93;5.18;;;17.60;82.40;;;;;;4846176;29;20053;-77
2022/10/29 12:14:15;;;;;;;13.93;5.63;;;17.60;82.40;;;;;;4862515;29;20050;-75
2022/10/29 12:17:12;;;;;;;11.07;5.22;;;17.60;82.40;;;;;;4862576;29;20061;-76
2022/10/29 12:19:54;;;;;;;11.63;4.75;;;17.60;82.40;;;;;;4862819;29;20046;-76
2022/10/29 12:22:19;;;;;;;7.82;4.35;;;17.60;82.40;;;;;;4862084;29;20053;-76
2022/10/29 12:25:03;;;;;;;10.90;4.57;;;17.60;82.40;;;;;;4861815;29;20504;-75
2022/10/29 12:27:35;;;;;;;10.65;4.00;;;17.60;82.60;;;;;;4862587;29;20045;-76
2022/10/29 12:30:09;;;;;;;11.30;5.03;;;17.60;82.70;;;;;;4862711;29;20064;-77
2022/10/29 12:32:52;;;;;;;12.68;5.03;;;17.60;82.80;;;;;;4862425;29;20057;-75
2022/10/29 12:35:30;;;;;;;12.75;5.20;;;17.60;83.00;;;;;;4862739;29;20106;-76
2022/10/29 12:38:12;;;;;;;17.10;5.22;;;17.60;83.00;;;;;;4845899;29;20137;-76
2022/10/29 12:40:42;;;;;;;20.38;6.07;;;17.70;83.20;;;;;;4862638;29;20132;-77
2022/10/29 12:43:21;;;;;;;13.82;4.75;;;17.60;83.40;;;;;;4862072;29;20092;-72
2022/10/29 12:45:57;;;;;;;18.58;8.68;;;17.70;83.50;;;;;;4862446;29;20053;-82
2022/10/29 12:48:35;;;;;;;15.38;7.32;;;17.70;84.00;;;;;;4845698;29;20050;-80
2022/10/29 12:51:16;;;;;;;16.42;7.63;;;17.70;84.40;;;;;;4846351;29;20053;-79
2022/10/29 12:54:13;;;;;;;15.68;7.85;;;17.70;84.80;;;;;;4846919;29;20067;-80
2022/10/29 12:56:39;;;;;;;16.58;8.43;;;17.70;84.70;;;;;;4827302;29;20062;-80
2022/10/29 12:59:23;;;;;;;19.58;8.85;;;17.70;84.80;;;;;;4848952;29;20112;-80
2022/10/29 13:01:50;;;;;;;15.07;9.90;;;17.80;84.90;;;;;;4865746;29;20049;-79
2022/10/29 13:04:32;;;;;;;20.58;11.93;;;17.70;85.10;;;;;;4849674;29;20132;-80
2022/10/29 13:07:17;;;;;;;18.88;11.85;;;17.70;85.60;;;;;;4849503;29;20041;-79
2022/10/29 13:09:43;;;;;;;19.95;11.35;;;17.80;86.00;;;;;;4865839;29;20050;-80
2022/10/29 13:12:11;;;;;;;16.15;9.07;;;17.80;86.00;;;;;;4849405;29;20055;-78
2022/10/29 13:14:42;;;;;;;19.23;9.07;;;17.80;86.90;;;;;;4865504;29;20070;-78
2022/10/29 13:17:39;;;;;;;20.52;9.93;;;17.90;86.00;;;;;;4865536;29;20363;-79
2022/10/29 13:20:26;;;;;;;17.83;10.10;;;17.90;86.10;;;;;;4840870;29;20057;-79
2022/10/29 13:22:57;;;;;;;20.83;10.02;;;17.90;86.40;;;;;;4848232;29;20462;-80
2022/10/29 13:25:32;;;;;;;20.15;10.38;;;17.90;86.30;;;;;;4862299;29;20041;-82
2022/10/29 13:27:58;;;;;;;16.98;10.35;;;17.90;86.50;;;;;;4865594;29;20492;-79
2022/10/29 13:30:26;;;;;;;20.08;11.10;;;17.90;86.20;;;;;;4856129;29;20049;-81
2022/10/29 13:32:54;;;;;;;20.40;9.40;;;17.90;86.20;;;;;;4863974;29;20046;-82
2022/10/29 13:35:20;;;;;;;18.20;10.18;;;17.90;86.30;;;;;;4849411;29;20057;-78
2022/10/29 13:37:45;;;;;;;16.98;9.95;;;17.90;86.20;;;;;;4848481;29;20069;-80
2022/10/29 13:40:29;;;;;;;21.92;10.70;;;17.90;86.30;;;;;;4833147;29;20057;-80
2022/10/29 13:43:11;;;;;;;32.58;10.68;;;17.90;86.40;;;;;;4848732;29;20050;-81
2022/10/29 13:45:42;;;;;;;18.17;10.30;;;17.90;86.30;;;;;;4848686;29;20056;-81
2022/10/29 13:48:22;;;;;;;16.83;8.93;;;17.90;86.30;;;;;;4865001;29;20056;-81
2022/10/29 13:50:53;;;;;;;19.80;9.00;;;17.90;86.30;;;;;;4864852;29;20046;-82
2022/10/29 13:53:27;;;;;;;15.77;9.43;;;17.90;86.10;;;;;;4864471;29;20060;-79
2022/10/29 13:55:54;;;;;;;16.13;8.70;;;17.90;86.00;;;;;;4847823;29;20053;-82
2022/10/29 13:58:43;;;;;;;19.08;8.65;;;17.90;86.00;;;;;;4864334;29;20115;-80
2022/10/29 14:01:14;;;;;;;17.48;9.23;;;17.90;86.00;;;;;;4847978;29;20051;-82
2022/10/29 14:04:05;;;;;;;14.85;8.35;;;17.90;85.90;;;;;;4863914;29;20045;-83
2022/10/29 14:06:36;;;;;;;18.20;8.77;;;17.90;85.80;;;;;;4833520;29;20140;-80
2022/10/29 14:09:29;;;;;;;17.40;7.97;;;17.90;85.80;;;;;;4848180;29;20074;-81
2022/10/29 14:12:01;;;;;;;11.18;7.60;;;17.90;85.60;;;;;;4847823;29;20378;-81
2022/10/29 14:14:35;;;;;;;19.75;8.63;;;17.90;85.50;;;;;;4832829;29;20045;-80
2022/10/29 14:17:12;;;;;;;12.70;7.65;;;18.00;85.50;;;;;;4848165;29;20042;-81
2022/10/29 14:19:49;;;;;;;16.10;8.05;;;18.00;85.40;;;;;;4848470;29;20078;-80
2022/10/29 14:22:17;;;;;;;16.13;8.00;;;18.00;85.20;;;;;;4863053;29;20124;-81
2022/10/29 14:24:43;;;;;;;13.05;7.10;;;18.00;85.20;;;;;;4863315;29;20042;-83
2022/10/29 14:27:14;;;;;;;12.68;7.15;;;18.00;85.00;;;;;;4847523;29;20048;-80
2022/10/29 14:29:40;;;;;;;13.90;7.63;;;18.00;84.90;;;;;;4848394;29;20061;-81
2022/10/29 14:32:18;;;;;;;13.43;7.10;;;18.00;84.90;;;;;;4864471;29;20053;-81
2022/10/29 14:34:47;;;;;;;12.70;7.32;;;18.00;84.70;;;;;;4863738;29;20351;-84
2022/10/29 14:37:30;;;;;;;13.35;6.90;;;18.00;84.60;;;;;;4864643;29;20060;-80
2022/10/29 14:40:00;;;;;;;12.98;6.20;;;18.00;84.60;;;;;;4847742;29;20080;-80
2022/10/29 14:42:39;;;;;;;12.52;6.45;;;18.00;84.50;;;;;;4863042;29;20041;-80
2022/10/29 14:45:22;;;;;;;12.52;5.63;;;18.00;84.40;;;;;;4847625;29;20352;-80
2022/10/29 14:47:57;;;;;;;15.13;5.88;;;18.10;84.30;;;;;;4850180;29;20037;-81
2022/10/29 14:50:25;;;;;;;11.23;5.30;;;18.00;84.80;;;;;;4867823;29;20061;-77
2022/10/29 14:52:57;;;;;;;9.00;5.43;;;18.00;84.30;;;;;;4863971;29;20064;-84
2022/10/29 14:55:30;;;;;;;9.35;5.80;;;18.00;84.40;;;;;;4832899;29;20605;-77
2022/10/29 14:58:10;;;;;;;15.95;5.63;;;18.00;84.50;;;;;;4877593;29;20127;-77
2022/10/29 15:00:37;;;;;;;8.50;4.97;;;18.00;84.70;;;;;;4879934;29;20052;-82
2022/10/29 15:03:04;;;;;;;11.38;5.35;;;18.00;84.80;;;;;;4882789;29;20053;-76
2022/10/29 15:05:35;;;;;;;11.00;5.50;;;18.00;84.90;;;;;;4882318;29;20060;-75
2022/10/29 15:08:10;;;;;;;13.90;4.65;;;18.00;84.90;;;;;;4882174;29;20064;-78
2022/10/29 15:10:52;;;;;;;8.23;5.10;;;18.00;85.00;;;;;;4882069;29;20053;-78
2022/10/29 15:13:30;;;;;;;8.20;4.60;;;18.00;85.10;;;;;;4868450;29;20077;-73
2022/10/29 15:16:04;;;;;;;11.07;4.47;;;18.00;85.20;;;;;;4857641;29;20053;-76
2022/10/29 15:18:31;;;;;;;10.18;5.88;;;18.00;85.40;;;;;;4863787;29;20097;-78
2022/10/29 15:20:57;;;;;;;13.35;7.60;;;18.00;85.30;;;;;;4863659;29;20507;-76
2022/10/29 15:23:29;;;;;;;15.68;7.38;;;18.00;85.60;;;;;;4863605;29;20041;-79
2022/10/29 15:26:06;;;;;;;15.40;7.45;;;18.00;85.90;;;;;;4863292;29;20120;-77
2022/10/29 15:28:44;;;;;;;16.13;7.65;;;18.00;86.00;;;;;;4878885;29;20045;-77
2022/10/29 15:31:16;;;;;;;13.32;8.90;;;18.10;86.00;;;;;;4863285;29;20049;-78
2022/10/29 15:33:41;;;;;;;19.38;9.75;;;18.00;86.10;;;;;;4877032;29;20049;-77
2022/10/29 15:36:07;;;;;;;21.88;12.73;;;18.00;86.00;;;;;;4881923;29;20049;-77
2022/10/29 15:39:16;;;;;;;16.45;8.98;;;18.10;86.20;;;;;;4869609;29;20045;-78
2022/10/29 15:41:48;;;;;;;17.58;9.48;;;18.10;86.60;;;;;;4850637;29;20367;-75
2022/10/29 15:44:29;;;;;;;28.50;10.45;;;18.10;86.40;;;;;;4863079;29;20078;-73
2022/10/29 15:46:58;;;;;;;16.33;9.75;;;18.10;86.10;;;;;;4863072;29;20060;-74
2022/10/29 15:49:28;;;;;;;22.73;9.68;;;18.20;85.80;;;;;;4862965;29;20053;-73
2022/10/29 15:51:59;;;;;;;27.13;10.25;;;18.20;85.60;;;;;;4863630;29;20072;-75
2022/10/29 15:54:25;;;;;;;26.63;10.43;;;18.20;85.40;;;;;;4846799;29;20415;-76
2022/10/29 15:56:51;;;;;;;22.63;10.30;;;18.20;85.30;;;;;;4863055;29;20061;-75
2022/10/29 15:59:22;;;;;;;19.00;9.38;;;18.20;85.10;;;;;;4873146;29;20081;-75
2022/10/29 16:01:48;;;;;;;21.45;10.15;;;18.20;85.00;;;;;;4867487;29;20045;-73
2022/10/29 16:04:13;;;;;;;17.83;10.38;;;18.20;84.90;;;;;;4881753;29;20048;-74
2022/10/29 16:06:39;;;;;;;18.00;10.13;;;18.20;84.70;;;;;;4881023;29;20530;-73
2022/10/29 16:09:05;;;;;;;21.33;10.35;;;18.20;84.60;;;;;;4875763;29;20059;-73
2022/10/29 16:11:33;;;;;;;17.92;9.70;;;18.20;84.60;;;;;;4862773;29;20108;-73
2022/10/29 16:13:59;;;;;;;18.17;9.88;;;18.20;84.60;;;;;;4846304;29;20124;-73
2022/10/29 16:16:27;;;;;;;20.40;10.77;;;18.10;84.60;;;;;;4862242;29;20132;-73
2022/10/29 16:18:53;;;;;;;16.20;9.70;;;18.10;84.80;;;;;;4862854;29;20045;-74
2022/10/29 16:21:22;;;;;;;19.13;9.45;;;18.10;84.90;;;;;;4861695;29;20447;-75
2022/10/29 16:23:48;;;;;;;18.58;9.05;;;18.10;85.00;;;;;;4857190;29;20463;-74
2022/10/29 16:26:24;;;;;;;27.02;9.70;;;18.10;85.20;;;;;;4862516;29;20084;-74
2022/10/29 16:28:52;;;;;;;16.95;8.52;;;18.10;85.20;;;;;;4862754;29;20046;-74
2022/10/29 16:31:22;;;;;;;18.17;8.55;;;18.10;85.40;;;;;;4846262;29;20132;-73
2022/10/29 16:33:49;;;;;;;17.63;9.05;;;18.10;85.30;;;;;;4882613;29;20045;-72
2022/10/29 16:36:15;;;;;;;20.23;9.23;;;18.10;85.40;;;;;;4866610;29;20053;-76
2022/10/29 16:38:42;;;;;;;20.10;8.45;;;18.10;85.50;;;;;;4866325;29;20061;-74
2022/10/29 16:41:12;;;;;;;21.75;8.77;;;18.10;85.50;;;;;;4865990;29;20118;-71
2022/10/29 16:43:38;;;;;;;23.60;9.63;;;18.10;85.50;;;;;;4865867;29;20049;-78
2022/10/29 16:46:05;;;;;;;18.67;8.18;;;18.10;85.50;;;;;;4869636;29;20077;-72
2022/10/29 16:48:31;;;;;;;18.17;6.68;;;18.10;85.60;;;;;;4867940;29;20131;-74
2022/10/29 16:50:57;;;;;;;13.65;5.20;;;18.10;85.90;;;;;;4869690;29;20502;-73
2022/10/29 16:53:22;;;;;;;22.83;5.25;;;18.10;85.80;;;;;;4865979;29;20355;-77
2022/10/29 16:55:48;;;;;;;14.43;5.10;;;18.10;85.70;;;;;;4864887;29;20058;-76
2022/10/29 16:58:16;;;;;;;14.32;4.60;;;18.10;85.70;;;;;;4865849;29;20057;-76
2022/10/29 17:00:42;;;;;;;13.60;4.30;;;18.10;85.60;;;;;;4849943;29;20371;-75
2022/10/29 17:03:11;;;;;;;15.05;4.28;;;18.10;85.60;;;;;;4838312;29;20053;-75
2022/10/29 17:05:38;;;;;;;9.27;3.55;;;18.10;85.60;;;;;;4854571;29;20526;-76
2022/10/29 17:08:05;;;;;;;9.32;3.78;;;18.10;85.50;;;;;;4865727;29;20055;-77
2022/10/29 17:10:31;;;;;;;8.13;3.72;;;18.10;85.40;;;;;;4881940;29;20056;-75
2022/10/29 17:12:57;;;;;;;8.07;3.22;;;18.10;85.40;;;;;;4884600;29;20045;-76
2022/10/29 17:15:23;;;;;;;11.45;3.83;;;18.10;85.40;;;;;;4871729;29;20057;-76
2022/10/29 17:17:49;;;;;;;11.05;3.60;;;18.10;85.50;;;;;;4867770;29;20224;-71
2022/10/29 17:20:15;;;;;;;11.60;3.70;;;18.10;85.50;;;;;;4883454;29;20044;-75
2022/10/29 17:22:41;;;;;;;13.45;4.05;;;18.10;85.50;;;;;;4867901;29;20052;-73
2022/10/29 17:25:07;;;;;;;16.85;3.75;;;18.10;85.50;;;;;;4884122;29;20041;-72
2022/10/29 17:27:33;;;;;;;16.20;3.67;;;18.10;85.50;;;;;;4877928;29;20045;-75
2022/10/29 17:29:59;;;;;;;10.30;3.25;;;18.20;85.40;;;;;;4866130;29;20060;-75
2022/10/29 17:32:25;;;;;;;9.50;2.97;;;18.20;85.30;;;;;;4864190;29;20407;-77
2022/10/29 17:34:50;;;;;;;10.60;3.10;;;18.20;85.30;;;;;;4876274;29;20042;-79
2022/10/29 17:37:16;;;;;;;9.45;3.78;;;18.20;85.20;;;;;;4846826;29;20045;-78
2022/10/29 17:39:42;;;;;;;8.45;2.72;;;18.20;85.10;;;;;;4864690;29;20056;-79
2022/10/29 17:42:08;;;;;;;6.45;2.40;;;18.20;85.00;;;;;;4864326;29;20057;-77
2022/10/29 17:44:35;;;;;;;9.60;2.88;;;18.20;84.90;;;;;;4863818;29;20064;-76
2022/10/29 17:47:00;;;;;;;7.57;2.67;;;18.20;84.90;;;;;;4864724;29;20053;-79
2022/10/29 17:49:26;;;;;;;6.93;2.40;;;18.10;84.70;;;;;;4878826;29;20124;-79
2022/10/29 17:51:52;;;;;;;5.60;2.17;;;18.10;84.70;;;;;;4883291;29;20064;-78
2022/10/29 17:54:20;;;;;;;7.03;2.33;;;18.10;84.60;;;;;;4883341;29;20510;-78
2022/10/29 17:56:46;;;;;;;5.60;1.73;;;18.10;84.60;;;;;;4866860;29;20057;-78
2022/10/29 17:59:11;;;;;;;7.45;2.20;;;18.10;84.60;;;;;;4864830;29;20528;-78
2022/10/29 18:01:37;;;;;;;6.40;2.25;;;18.10;84.50;;;;;;4870353;29;20037;-75
2022/10/29 18:04:04;;;;;;;6.32;1.90;;;18.10;84.40;;;;;;4883015;29;20061;-74
2022/10/29 18:06:30;;;;;;;6.93;3.38;;;18.10;85.00;;;;;;4883289;29;20100;-74
2022/10/29 18:08:56;;;;;;;6.35;3.70;;;18.10;84.40;;;;;;4865040;29;20060;-74
2022/10/29 18:11:23;;;;;;;10.35;5.03;;;18.10;84.30;;;;;;4878342;29;20053;-74
2022/10/29 18:13:50;;;;;;;11.38;5.18;;;18.10;84.20;;;;;;4882539;29;20055;-74
2022/10/29 18:16:21;;;;;;;10.18;5.18;;;18.10;84.10;;;;;;4880021;29;20049;-74
2022/10/29 18:18:49;;;;;;;10.65;4.85;;;18.10;84.00;;;;;;4861912;29;20057;-74
2022/10/29 18:21:17;;;;;;;14.70;5.13;;;18.10;84.10;;;;;;4863963;29;20353;-74
2022/10/29 18:23:43;;;;;;;6.05;4.55;;;18.10;84.00;;;;;;4864228;29;20133;-75
2022/10/29 18:26:32;;;;;;;12.13;6.85;;;18.10;84.00;;;;;;4867952;29;20474;-76
2022/10/29 18:29:00;;;;;;;9.80;5.47;;;18.10;84.00;;;;;;4865264;29;20068;-76
2022/10/29 18:31:29;;;;;;;9.98;5.10;;;18.10;84.10;;;;;;4864854;29;20057;-76
2022/10/29 18:34:00;;;;;;;9.25;4.07;;;18.10;84.00;;;;;;4848809;29;20065;-75
2022/10/29 18:36:27;;;;;;;8.27;4.72;;;18.10;83.90;;;;;;4862911;29;20054;-78
2022/10/29 18:38:54;;;;;;;9.27;4.45;;;18.10;83.80;;;;;;4880055;29;20057;-75
2022/10/29 18:41:21;;;;;;;7.65;4.30;;;18.10;83.70;;;;;;4864470;29;20190;-75
2022/10/29 18:43:47;;;;;;;9.52;3.78;;;18.10;83.60;;;;;;4864316;29;20049;-76
2022/10/29 18:46:13;;;;;;;8.10;3.88;;;18.20;83.60;;;;;;4878512;29;20071;-75
2022/10/29 18:48:41;;;;;;;8.90;4.50;;;18.20;83.60;;;;;;4882019;29;20124;-77
2022/10/29 18:51:14;;;;;;;5.95;3.95;;;18.20;83.50;;;;;;4882328;29;20162;-75
2022/10/29 18:53:39;;;;;;;8.13;4.55;;;18.20;83.50;;;;;;4882861;29;20132;-75
2022/10/29 18:56:11;;;;;;;6.65;3.63;;;18.20;83.30;;;;;;4855143;29;20153;-77
2022/10/29 18:58:36;;;;;;;7.05;3.92;;;18.20;83.30;;;;;;4864461;29;20062;-75